createdAt,value
2023-01-31T00:01:39.140Z,97072.97
2023-01-31T00:06:51.212Z,97068.75
2023-01-31T00:11:55.177Z,97074.69
2023-01-31T00:16:58.457Z,97073.00
2023-01-31T00:22:03.640Z,97066.16
2023-01-31T00:27:08.070Z,97065.31
2023-01-31T00:32:11.822Z,97073.00
2023-01-31T00:37:17.115Z,97073.81
2023-01-31T00:42:20.771Z,97082.38
2023-01-31T00:47:24.306Z,97074.69
2023-01-31T00:52:29.400Z,97080.66
2023-01-31T00:57:33.083Z,97080.63
2023-01-31T01:02:36.501Z,97081.47
2023-01-31T01:07:41.713Z,97088.31
2023-01-31T01:12:45.070Z,97080.66
2023-01-31T01:17:48.477Z,97076.38
2023-01-31T01:22:53.656Z,97083.22
2023-01-31T01:27:57.308Z,97076.41
2023-01-31T01:33:00.593Z,97085.78
2023-01-31T01:38:05.593Z,97087.47
2023-01-31T01:43:12.939Z,97080.69
2023-01-31T01:48:19.545Z,97076.41
2023-01-31T01:53:27.559Z,97081.53
2023-01-31T01:58:35.183Z,97079.81
2023-01-31T02:03:40.034Z,97080.66
2023-01-31T02:08:45.342Z,97095.16
2023-01-31T02:13:50.632Z,97088.34
2023-01-31T02:18:54.745Z,97083.22
2023-01-31T02:24:41.114Z,97102.81
2023-01-31T02:30:03.867Z,97089.16
2023-01-31T02:35:15.003Z,97076.41
2023-01-31T02:40:26.632Z,97072.16
2023-01-31T02:45:38.149Z,97077.25
2023-01-31T02:50:49.394Z,97079.81
2023-01-31T02:56:18.465Z,97084.09
2023-01-31T03:01:29.385Z,97101.97
2023-01-31T03:07:00.268Z,97109.63
2023-01-31T03:12:19.666Z,97102.81
2023-01-31T03:17:35.308Z,97114.75
2023-01-31T03:22:42.166Z,97109.63
2023-01-31T03:27:49.950Z,97107.91
2023-01-31T03:32:57.279Z,97107.91
2023-01-31T03:38:07.941Z,97114.75
2023-01-31T03:43:17.984Z,97111.34
2023-01-31T03:48:24.594Z,97116.47
2023-01-31T03:53:34.320Z,97126.69
2023-01-31T03:58:43.325Z,97130.09
2023-01-31T04:03:51.491Z,97136.91
2023-01-31T04:08:56.510Z,97143.69
2023-01-31T04:13:59.913Z,97131.78
2023-01-31T04:19:03.268Z,97132.63
2023-01-31T04:24:10.206Z,97133.50
2023-01-31T04:29:13.952Z,97142.91
2023-01-31T04:34:17.457Z,97133.47
2023-01-31T04:39:22.441Z,97150.50
2023-01-31T04:44:25.853Z,97150.53
2023-01-31T04:49:29.570Z,97153.91
2023-01-31T04:54:34.452Z,97163.31
2023-01-31T04:59:37.801Z,97171.81
2023-01-31T05:04:41.353Z,97173.50
2023-01-31T05:09:46.670Z,97175.19
2023-01-31T05:14:51.538Z,97180.34
2023-01-31T05:19:54.824Z,97186.34
2023-01-31T05:24:59.654Z,97188.88
2023-01-31T05:30:03.113Z,97198.25
2023-01-31T05:35:07.323Z,97192.31
2023-01-31T05:40:14.437Z,97197.44
2023-01-31T05:45:18.236Z,97200.81
2023-01-31T05:50:22.842Z,97205.09
2023-01-31T05:55:28.014Z,97207.66
2023-01-31T06:00:32.135Z,97206.81
2023-01-31T06:05:35.735Z,97203.41
2023-01-31T06:10:40.564Z,97212.81
2023-01-31T06:15:44.501Z,97215.31
2023-01-31T06:20:48.156Z,97208.53
2023-01-31T06:25:54.049Z,97217.03
2023-01-31T06:30:57.967Z,97228.16
2023-01-31T06:36:01.708Z,97242.66
2023-01-31T06:41:07.095Z,97239.25
2023-01-31T06:46:10.500Z,97258.00
2023-01-31T06:51:14.111Z,97250.31
2023-01-31T06:56:18.999Z,97258.84
2023-01-31T07:01:24.676Z,97264.81
2023-01-31T07:06:28.327Z,97263.13
2023-01-31T07:11:33.344Z,97274.19
2023-01-31T07:16:38.229Z,97276.78
2023-01-31T07:21:41.536Z,97277.63
2023-01-31T07:26:46.584Z,97289.53
2023-01-31T07:31:50.332Z,97285.31
2023-01-31T07:36:54.102Z,97287.84
2023-01-31T07:41:59.135Z,97284.47
2023-01-31T07:47:02.706Z,97285.31
2023-01-31T07:52:08.505Z,97292.97
2023-01-31T07:57:13.658Z,97310.88
2023-01-31T08:02:36.259Z,97321.16
2023-01-31T08:07:39.927Z,97312.59
2023-01-31T08:12:44.692Z,97331.38
2023-01-31T08:17:47.973Z,97337.31
2023-01-31T08:22:51.525Z,97339.88
2023-01-31T08:27:56.687Z,97345.03
2023-01-31T08:33:00.058Z,97351.00
2023-01-31T08:38:16.086Z,97339.91
2023-01-31T08:43:21.483Z,97337.34
2023-01-31T08:48:25.080Z,97339.91
2023-01-31T08:53:28.851Z,97342.47
2023-01-31T08:58:35.746Z,97329.66
2023-01-31T09:03:39.463Z,97319.38
2023-01-31T09:09:01.739Z,97327.09
2023-01-31T09:14:06.926Z,97316.81
2023-01-31T09:19:10.347Z,97316.81
2023-01-31T09:24:13.729Z,97343.28
2023-01-31T09:29:18.702Z,97339.81
2023-01-31T09:34:22.389Z,97333.06
2023-01-31T09:39:26.455Z,97314.28
2023-01-31T09:44:34.617Z,97327.94
2023-01-31T09:49:47.352Z,97331.25
2023-01-31T09:54:51.076Z,97334.66
2023-01-31T10:00:03.560Z,97334.63
2023-01-31T10:05:21.135Z,97332.81
2023-01-31T10:10:35.240Z,97341.38
2023-01-31T10:15:44.604Z,97348.22
2023-01-31T10:20:52.968Z,97351.66
2023-01-31T10:26:01.042Z,97355.16
2023-01-31T10:31:13.559Z,97355.88
2023-01-31T10:36:30.472Z,97361.78
2023-01-31T10:41:45.903Z,97370.50
2023-01-31T10:46:51.142Z,97367.97
2023-01-31T10:52:13.560Z,97338.00
2023-01-31T10:57:18.357Z,97353.34
2023-01-31T11:02:27.010Z,97366.16
2023-01-31T11:07:31.983Z,97357.63
2023-01-31T11:12:42.547Z,97355.09
2023-01-31T11:17:48.844Z,97345.66
2023-01-31T11:22:53.574Z,97355.03
2023-01-31T11:28:01.284Z,97356.78
2023-01-31T11:33:06.671Z,97361.09
2023-01-31T11:38:23.619Z,97361.13
2023-01-31T11:43:31.327Z,97361.91
2023-01-31T11:48:43.164Z,97363.59
2023-01-31T11:53:50.737Z,97366.19
2023-01-31T11:58:57.254Z,97361.03
2023-01-31T12:04:04.888Z,97359.34
2023-01-31T12:09:21.971Z,97358.47
2023-01-31T12:14:26.773Z,97369.59
2023-01-31T12:19:43.470Z,97376.47
2023-01-31T12:24:58.223Z,97376.47
2023-01-31T12:30:27.425Z,97383.28
2023-01-31T12:36:02.773Z,97365.41
2023-01-31T12:41:16.125Z,97385.03
2023-01-31T12:46:26.735Z,97391.81
2023-01-31T12:51:43.500Z,97404.66
2023-01-31T12:57:03.182Z,97414.13
2023-01-31T13:02:19.938Z,97415.78
2023-01-31T13:07:30.856Z,97427.78
2023-01-31T13:12:36.623Z,97420.13
2023-01-31T13:17:42.037Z,97431.19
2023-01-31T13:22:49.805Z,97424.31
2023-01-31T13:27:59.747Z,97438.88
2023-01-31T13:33:08.969Z,97438.88
2023-01-31T13:38:18.311Z,97441.47
2023-01-31T13:43:22.377Z,97444.06
2023-01-31T13:48:31.299Z,97438.88
2023-01-31T13:53:39.389Z,97446.59
2023-01-31T13:58:46.202Z,97444.91
2023-01-31T14:04:22.589Z,97454.34
2023-01-31T14:09:29.161Z,97457.69
2023-01-31T14:14:43.921Z,97453.44
2023-01-31T14:20:03.953Z,97460.28
2023-01-31T14:25:16.488Z,97459.47
2023-01-31T14:30:37.993Z,97462.84
2023-01-31T14:36:01.897Z,97463.75
2023-01-31T14:41:17.893Z,97467.16
2023-01-31T14:46:45.790Z,97472.28
2023-01-31T14:52:07.382Z,97483.38
2023-01-31T14:57:19.224Z,97478.25
2023-01-31T15:02:46.992Z,97483.38
2023-01-31T15:08:06.929Z,97490.19
2023-01-31T15:13:38.419Z,97487.66
2023-01-31T15:18:42.768Z,97492.78
2023-01-31T15:23:46.461Z,97486.81
2023-01-31T15:28:53.670Z,97499.63
2023-01-31T15:34:01.181Z,97493.63
2023-01-31T15:39:16.853Z,97486.78
2023-01-31T15:44:23.561Z,97495.34
2023-01-31T15:49:39.508Z,97493.63
2023-01-31T15:54:57.289Z,97503.03
2023-01-31T16:00:02.566Z,97503.88
2023-01-31T16:05:08.068Z,97513.28
2023-01-31T16:10:14.919Z,97528.63
2023-01-31T16:15:23.677Z,97529.50
2023-01-31T16:20:44.091Z,97516.69
2023-01-31T16:25:54.219Z,97520.97
2023-01-31T16:31:10.240Z,97527.81
2023-01-31T16:36:18.237Z,97533.78
2023-01-31T16:41:43.411Z,97543.19
2023-01-31T16:46:49.893Z,97532.94
2023-01-31T16:51:59.917Z,97544.03
2023-01-31T16:57:09.739Z,97532.91
2023-01-31T17:02:22.940Z,97542.31
2023-01-31T17:07:30.288Z,97545.69
2023-01-31T17:12:36.260Z,97540.53
2023-01-31T17:17:41.172Z,97558.50
2023-01-31T17:22:50.422Z,97554.25
2023-01-31T17:28:00.252Z,97561.94
2023-01-31T17:33:05.125Z,97568.78
2023-01-31T17:38:08.900Z,97570.47
2023-01-31T17:43:18.933Z,97578.19
2023-01-31T17:48:26.506Z,97577.34
2023-01-31T17:53:37.304Z,97574.78
2023-01-31T17:58:44.180Z,97572.22
2023-01-31T18:03:49.254Z,97564.47
2023-01-31T18:08:53.211Z,97578.19
2023-01-31T18:13:59.197Z,97569.63
2023-01-31T18:19:04.030Z,97570.50
2023-01-31T18:24:09.165Z,97577.34
2023-01-31T18:29:19.461Z,97577.34
2023-01-31T18:34:24.450Z,97587.56
2023-01-31T18:39:27.648Z,97584.19
2023-01-31T18:44:31.399Z,97589.31
2023-01-31T18:49:36.168Z,97597.88
2023-01-31T18:54:40.165Z,97593.63
2023-01-31T18:59:43.494Z,97595.28
2023-01-31T19:04:48.497Z,97595.28
2023-01-31T19:09:51.699Z,97597.03
2023-01-31T19:14:56.613Z,97591.91
2023-01-31T19:20:01.142Z,97601.31
2023-01-31T19:25:05.729Z,97603.00
2023-01-31T19:30:10.481Z,97601.31
2023-01-31T19:35:15.225Z,97616.69
2023-01-31T19:40:18.939Z,97606.44
2023-01-31T19:45:23.038Z,97611.56
2023-01-31T19:50:28.147Z,97613.25
2023-01-31T19:55:33.667Z,97614.97
2023-01-31T20:00:37.095Z,97621.81
2023-01-31T20:05:42.301Z,97620.06
2023-01-31T20:10:45.366Z,97624.28
2023-01-31T20:15:48.807Z,97631.16
2023-01-31T20:20:54.022Z,97637.13
2023-01-31T20:25:58.097Z,97644.00
2023-01-31T20:31:05.057Z,97642.31
2023-01-31T20:36:10.370Z,97650.84
2023-01-31T20:41:15.267Z,97657.63
2023-01-31T20:46:19.552Z,97649.94
2023-01-31T20:51:24.277Z,97658.50
2023-01-31T20:56:27.885Z,97652.56
2023-01-31T21:01:31.219Z,97649.94
2023-01-31T21:06:37.159Z,97659.38
2023-01-31T21:11:40.500Z,97657.66
2023-01-31T21:16:43.799Z,97660.13
2023-01-31T21:21:48.548Z,97666.22
2023-01-31T21:26:52.291Z,97673.94
2023-01-31T21:31:55.794Z,97670.53
2023-01-31T21:37:00.567Z,97691.13
2023-01-31T21:42:19.778Z,97700.50
2023-01-31T21:47:23.453Z,97703.06
2023-01-31T21:52:28.348Z,97695.38
2023-01-31T21:57:31.491Z,97701.38
2023-01-31T22:02:34.836Z,97712.44
2023-01-31T22:07:40.717Z,97702.19
2023-01-31T22:12:44.233Z,97703.88
2023-01-31T22:17:47.647Z,97700.44
2023-01-31T22:22:52.383Z,97711.53
2023-01-31T22:27:57.595Z,97705.50
2023-01-31T22:33:00.908Z,97705.50
2023-01-31T22:38:05.795Z,97707.25
2023-01-31T22:43:09.263Z,97702.09
2023-01-31T22:48:12.733Z,97714.97
2023-01-31T22:53:17.428Z,97720.91
2023-01-31T22:58:21.426Z,97726.91
2023-01-31T23:03:25.521Z,97728.59
2023-01-31T23:08:30.422Z,97726.91
2023-01-31T23:13:33.773Z,97731.13
2023-01-31T23:18:38.157Z,97722.59
2023-01-31T23:23:43.232Z,97734.59
2023-01-31T23:28:47.901Z,97730.31
2023-01-31T23:33:51.239Z,97733.66
2023-01-31T23:38:56.191Z,97739.75
2023-01-31T23:43:59.444Z,97740.56
2023-01-31T23:49:02.783Z,97732.88
2023-01-31T23:54:07.648Z,97738.81
2023-01-31T23:59:11.310Z,97722.63
